createdAt,value
2023-01-04T00:00:04.478Z,100.00
2023-01-04T00:01:11.344Z,100.00
2023-01-04T00:02:31.749Z,100.00
2023-01-04T00:03:33.996Z,100.00
2023-01-04T00:04:35.692Z,100.00
2023-01-04T00:05:37.347Z,100.00
2023-01-04T00:06:42.620Z,100.00
2023-01-04T00:07:44.292Z,100.00
2023-01-04T00:08:46.039Z,100.00
2023-01-04T00:09:49.883Z,100.00
2023-01-04T00:10:54.373Z,100.00
2023-01-04T00:11:56.058Z,100.00
2023-01-04T00:12:57.754Z,100.00
2023-01-04T00:14:00.609Z,100.00
2023-01-04T00:15:03.145Z,100.00
2023-01-04T00:16:08.432Z,100.00
2023-01-04T00:17:10.293Z,100.00
2023-01-04T00:18:11.889Z,100.00
2023-01-04T00:19:13.542Z,100.00
2023-01-04T00:20:15.451Z,100.00
2023-01-04T00:21:18.296Z,100.00
2023-01-04T00:22:19.855Z,100.00
2023-01-04T00:23:21.449Z,100.00
2023-01-04T00:24:24.407Z,100.00
2023-01-04T00:25:26.526Z,100.00
2023-01-04T00:26:31.988Z,100.00
2023-01-04T00:27:33.931Z,100.00
2023-01-04T00:28:35.870Z,100.00
2023-01-04T00:29:37.648Z,100.00
2023-01-04T00:30:39.419Z,100.00
2023-01-04T00:31:41.712Z,100.00
2023-01-04T00:32:44.063Z,100.00
2023-01-04T00:33:45.596Z,100.00
2023-01-04T00:34:48.314Z,100.00
2023-01-04T00:35:50.408Z,100.00
2023-01-04T00:36:52.612Z,100.00
2023-01-04T00:37:54.196Z,100.00
2023-01-04T00:39:08.672Z,100.00
2023-01-04T00:40:11.446Z,100.00
2023-01-04T00:41:49.163Z,100.00
2023-01-04T00:42:35.668Z,100.00
2023-01-04T00:43:37.260Z,100.00
2023-01-04T00:44:38.896Z,100.00
2023-01-04T00:45:40.812Z,100.00
2023-01-04T00:46:43.032Z,100.00
2023-01-04T00:47:44.823Z,100.00
2023-01-04T00:48:49.042Z,100.00
2023-01-04T00:49:50.890Z,100.00
2023-01-04T00:50:52.870Z,100.00
2023-01-04T00:51:55.674Z,100.00
2023-01-04T00:52:57.370Z,100.00
2023-01-04T00:54:01.393Z,100.00
2023-01-04T00:55:03.155Z,100.00
2023-01-04T00:56:05.350Z,100.00
2023-01-04T00:57:08.307Z,100.00
2023-01-04T00:58:10.586Z,100.00
2023-01-04T00:59:13.985Z,100.00
2023-01-04T01:00:17.238Z,100.00
2023-01-04T01:01:20.403Z,100.00
2023-01-04T01:02:24.405Z,100.00
2023-01-04T01:03:26.613Z,100.00
2023-01-04T01:04:28.983Z,100.00
2023-01-04T01:05:30.841Z,100.00
2023-01-04T01:06:34.228Z,100.00
2023-01-04T01:07:36.549Z,100.00
2023-01-04T01:08:38.403Z,100.00
2023-01-04T01:09:40.704Z,100.00
2023-01-04T01:10:47.293Z,100.00
2023-01-04T01:11:49.163Z,100.00
2023-01-04T01:12:51.087Z,100.00
2023-01-04T01:13:53.165Z,100.00
2023-01-04T01:15:00.151Z,100.00
2023-01-04T01:16:03.911Z,100.00
2023-01-04T01:17:05.663Z,100.00
2023-01-04T01:18:07.345Z,100.00
2023-01-04T01:19:09.596Z,100.00
2023-01-04T01:20:12.073Z,100.00
2023-01-04T01:21:16.883Z,100.00
2023-01-04T01:22:18.975Z,100.00
2023-01-04T01:23:21.325Z,100.00
2023-01-04T01:24:23.008Z,100.00
2023-01-04T01:25:24.723Z,100.00
2023-01-04T01:26:26.677Z,100.00
2023-01-04T01:27:28.511Z,100.00
2023-01-04T01:28:30.550Z,100.00
2023-01-04T01:29:32.277Z,100.00
2023-01-04T01:30:34.473Z,100.00
2023-01-04T01:31:37.207Z,100.00
2023-01-04T01:32:38.905Z,100.00
2023-01-04T01:33:42.217Z,100.00
2023-01-04T01:34:44.211Z,100.00
2023-01-04T01:35:46.167Z,100.00
2023-01-04T01:36:48.500Z,100.00
2023-01-04T01:37:50.072Z,100.00
2023-01-04T01:38:51.934Z,100.00
2023-01-04T01:39:53.847Z,100.00
2023-01-04T01:40:55.750Z,100.00
2023-01-04T01:41:57.552Z,100.00
2023-01-04T01:42:59.450Z,100.00
2023-01-04T01:44:07.791Z,100.00
2023-01-04T01:45:34.032Z,100.00
2023-01-04T01:46:43.315Z,100.00
2023-01-04T01:47:48.585Z,100.00
2023-01-04T01:48:54.187Z,100.00
2023-01-04T01:49:56.867Z,100.00
2023-01-04T01:51:02.692Z,100.00
2023-01-04T01:52:09.085Z,100.00
2023-01-04T01:53:11.848Z,100.00
2023-01-04T01:54:21.069Z,100.00
2023-01-04T01:55:23.517Z,100.00
2023-01-04T01:56:29.992Z,100.00
2023-01-04T01:57:36.734Z,100.00
2023-01-04T01:58:44.171Z,100.00
2023-01-04T01:59:50.251Z,100.00
2023-01-04T02:00:52.586Z,100.00
2023-01-04T02:01:54.289Z,100.00
2023-01-04T02:03:10.661Z,100.00
2023-01-04T02:04:14.405Z,100.00
2023-01-04T02:05:17.988Z,100.00
2023-01-04T02:06:28.706Z,100.00
2023-01-04T02:07:31.103Z,100.00
2023-01-04T02:08:34.045Z,100.00
2023-01-04T02:09:37.367Z,100.00
2023-01-04T02:10:39.638Z,100.00
2023-01-04T02:11:41.548Z,100.00
2023-01-04T02:12:45.279Z,100.00
2023-01-04T02:14:05.968Z,100.00
2023-01-04T02:15:08.568Z,100.00
2023-01-04T02:16:25.040Z,100.00
2023-01-04T02:17:41.772Z,100.00
2023-01-04T02:19:04.371Z,100.00
2023-01-04T02:20:17.941Z,100.00
2023-01-04T02:21:34.651Z,100.00
2023-01-04T02:23:09.944Z,100.00
2023-01-04T02:24:42.348Z,100.00
2023-01-04T02:26:02.312Z,100.00
2023-01-04T02:27:35.100Z,100.00
2023-01-04T02:28:55.905Z,100.00
2023-01-04T02:30:36.607Z,100.00
2023-01-04T02:31:47.854Z,100.00
2023-01-04T02:33:19.651Z,100.00
2023-01-04T02:34:44.739Z,100.00
2023-01-04T02:36:11.161Z,100.00
2023-01-04T02:37:34.207Z,100.00
2023-01-04T02:38:44.719Z,100.00
2023-01-04T02:39:57.188Z,100.00
2023-01-04T02:41:11.095Z,100.00
2023-01-04T02:42:51.929Z,100.00
2023-01-04T02:44:19.084Z,100.00
2023-01-04T02:45:27.924Z,100.00
2023-01-04T02:46:44.095Z,100.00
2023-01-04T02:48:05.144Z,100.00
2023-01-04T02:49:25.340Z,100.00
2023-01-04T02:50:32.729Z,100.00
2023-01-04T02:51:36.939Z,100.00
2023-01-04T02:52:39.011Z,100.00
2023-01-04T02:53:42.454Z,100.00
2023-01-04T02:54:50.796Z,100.00
2023-01-04T02:56:07.466Z,100.00
2023-01-04T02:57:38.295Z,100.00
2023-01-04T02:58:45.811Z,100.00
2023-01-04T02:59:50.713Z,100.00
2023-01-04T03:01:20.973Z,100.00
2023-01-04T03:03:20.441Z,100.00
2023-01-04T03:04:58.973Z,100.00
2023-01-04T03:06:16.289Z,100.00
2023-01-04T03:07:23.770Z,100.00
2023-01-04T03:08:40.229Z,100.00
2023-01-04T03:09:45.758Z,100.00
2023-01-04T03:10:49.624Z,100.00
2023-01-04T03:12:25.064Z,100.00
2023-01-04T03:13:38.038Z,100.00
2023-01-04T03:14:50.749Z,100.00
2023-01-04T03:15:56.291Z,100.00
2023-01-04T03:17:00.209Z,100.00
2023-01-04T03:18:20.032Z,100.00
2023-01-04T03:19:47.060Z,100.00
2023-01-04T03:20:50.335Z,100.00
2023-01-04T03:21:52.008Z,100.00
2023-01-04T03:23:17.461Z,100.00
2023-01-04T03:24:37.499Z,100.00
2023-01-04T03:26:05.767Z,100.00
2023-01-04T03:27:26.927Z,100.00
2023-01-04T03:28:51.287Z,100.00
2023-01-04T03:30:19.046Z,100.00
2023-01-04T03:31:45.121Z,100.00
2023-01-04T03:33:15.046Z,100.00
2023-01-04T03:34:36.407Z,100.00
2023-01-04T03:36:00.161Z,100.00
2023-01-04T03:37:17.023Z,100.00
2023-01-04T03:38:56.936Z,100.00
2023-01-04T03:40:50.269Z,100.00
2023-01-04T03:42:38.527Z,100.00
2023-01-04T03:44:05.691Z,100.00
2023-01-04T03:45:35.516Z,100.00
2023-01-04T03:47:10.678Z,100.00
2023-01-04T03:48:49.061Z,100.00
2023-01-04T03:50:00.730Z,100.00
2023-01-04T03:51:15.041Z,100.00
2023-01-04T03:52:18.276Z,100.00
2023-01-04T03:53:21.166Z,100.00
2023-01-04T03:54:37.465Z,100.00
2023-01-04T03:55:41.768Z,100.00
2023-01-04T03:56:46.128Z,100.00
2023-01-04T03:57:52.108Z,100.00
2023-01-04T03:58:55.002Z,100.00
2023-01-04T04:00:08.992Z,100.00
2023-01-04T04:01:10.908Z,100.00
2023-01-04T04:02:14.426Z,100.00
2023-01-04T04:03:16.181Z,100.00
2023-01-04T04:04:36.335Z,100.00
2023-01-04T04:06:01.622Z,100.00
2023-01-04T04:07:21.614Z,100.00
2023-01-04T04:08:29.027Z,100.00
2023-01-04T04:09:30.810Z,100.00
2023-01-04T04:10:33.816Z,100.00
2023-01-04T04:11:36.379Z,100.00
2023-01-04T04:12:39.151Z,100.00
2023-01-04T04:13:40.968Z,100.00
2023-01-04T04:14:42.827Z,100.00
2023-01-04T04:15:45.096Z,100.00
2023-01-04T04:16:46.852Z,100.00
2023-01-04T04:17:48.755Z,100.00
2023-01-04T04:18:50.801Z,100.00
2023-01-04T04:19:52.471Z,100.00
2023-01-04T04:20:58.029Z,100.00
2023-01-04T04:22:00.220Z,100.00
2023-01-04T04:23:02.336Z,100.00
2023-01-04T04:24:05.665Z,100.00
2023-01-04T04:25:11.706Z,100.00
2023-01-04T04:26:13.742Z,100.00
2023-01-04T04:27:15.361Z,100.00
2023-01-04T04:28:17.445Z,100.00
2023-01-04T04:29:19.273Z,100.00
2023-01-04T04:30:21.422Z,100.00
2023-01-04T04:31:23.332Z,100.00
2023-01-04T04:32:24.995Z,100.00
2023-01-04T04:33:27.121Z,100.00
2023-01-04T04:34:29.161Z,100.00
2023-01-04T04:35:31.377Z,100.00
2023-01-04T04:36:33.196Z,100.00
2023-01-04T04:37:35.212Z,100.00
2023-01-04T04:38:37.139Z,100.00
2023-01-04T04:39:39.130Z,100.00
2023-01-04T04:40:59.822Z,100.00
2023-01-04T04:42:03.551Z,100.00
2023-01-04T04:43:10.356Z,100.00
2023-01-04T04:44:17.980Z,100.00
2023-01-04T04:45:21.832Z,100.00
2023-01-04T04:46:23.944Z,100.00
2023-01-04T04:47:26.002Z,100.00
2023-01-04T04:48:27.879Z,100.00
2023-01-04T04:49:30.287Z,100.00
2023-01-04T04:50:32.101Z,100.00
2023-01-04T04:51:34.544Z,100.00
2023-01-04T04:52:41.232Z,100.00
2023-01-04T04:53:43.421Z,100.00
2023-01-04T04:54:45.494Z,100.00
2023-01-04T04:55:47.190Z,100.00
2023-01-04T04:56:50.972Z,100.00
2023-01-04T04:57:52.588Z,100.00
2023-01-04T04:58:54.691Z,100.00
2023-01-04T04:59:56.250Z,100.00
2023-01-04T05:00:58.026Z,100.00
2023-01-04T05:02:00.264Z,100.00
2023-01-04T05:03:02.723Z,100.00
2023-01-04T05:04:05.401Z,100.00
2023-01-04T05:05:07.721Z,100.00
2023-01-04T05:06:11.449Z,100.00
2023-01-04T05:07:13.640Z,100.00
2023-01-04T05:08:15.475Z,100.00
2023-01-04T05:09:17.980Z,100.00
2023-01-04T05:10:19.589Z,100.00
2023-01-04T05:11:41.490Z,100.00
2023-01-04T05:13:01.573Z,100.00
2023-01-04T05:14:03.342Z,100.00
2023-01-04T05:15:06.584Z,100.00
2023-01-04T05:16:10.519Z,100.00
2023-01-04T05:17:12.684Z,100.00
2023-01-04T05:18:16.728Z,100.00
2023-01-04T05:19:18.842Z,100.00
2023-01-04T05:20:20.881Z,100.00
2023-01-04T05:21:22.521Z,100.00
2023-01-04T05:22:24.097Z,100.00
2023-01-04T05:23:26.534Z,100.00
2023-01-04T05:24:29.166Z,100.00
2023-01-04T05:25:33.703Z,100.00
2023-01-04T05:26:35.554Z,100.00
2023-01-04T05:27:37.123Z,100.00
2023-01-04T05:28:38.992Z,100.00
2023-01-04T05:29:59.169Z,100.00
2023-01-04T05:31:01.286Z,100.00
2023-01-04T05:32:03.122Z,100.00
2023-01-04T05:33:05.989Z,100.00
2023-01-04T05:34:07.564Z,100.00
2023-01-04T05:35:10.114Z,100.00
2023-01-04T05:36:11.915Z,100.00
2023-01-04T05:37:13.832Z,100.00
2023-01-04T05:38:17.359Z,100.00
2023-01-04T05:39:20.301Z,100.00
2023-01-04T05:40:22.258Z,100.00
2023-01-04T05:41:43.582Z,100.00
2023-01-04T05:42:45.728Z,100.00
2023-01-04T05:43:48.585Z,100.00
2023-01-04T05:44:50.147Z,100.00
2023-01-04T05:46:07.248Z,100.00
2023-01-04T05:47:14.696Z,100.00
2023-01-04T05:48:21.404Z,100.00
2023-01-04T05:49:22.910Z,100.00
2023-01-04T05:50:25.036Z,100.00
2023-01-04T05:51:27.159Z,100.00
2023-01-04T05:52:29.174Z,100.00
2023-01-04T05:53:30.897Z,100.00
2023-01-04T05:54:32.452Z,100.00
2023-01-04T05:55:35.683Z,100.00
2023-01-04T05:56:37.636Z,100.00
2023-01-04T05:57:40.055Z,100.00
2023-01-04T05:58:42.520Z,100.00
2023-01-04T05:59:44.280Z,100.00
2023-01-04T06:00:46.274Z,100.00
2023-01-04T06:01:48.024Z,100.00
2023-01-04T06:02:50.440Z,100.00
2023-01-04T06:03:52.360Z,100.00
2023-01-04T06:04:58.667Z,100.00
2023-01-04T06:06:00.866Z,100.00
2023-01-04T06:07:02.659Z,100.00
2023-01-04T06:08:04.835Z,100.00
2023-01-04T06:09:08.417Z,100.00
2023-01-04T06:10:12.990Z,100.00
2023-01-04T06:11:15.096Z,100.00
2023-01-04T06:12:16.878Z,100.00
2023-01-04T06:13:18.608Z,100.00
2023-01-04T06:14:20.406Z,100.00
2023-01-04T06:15:22.253Z,100.00
2023-01-04T06:16:24.329Z,100.00
2023-01-04T06:17:26.204Z,100.00
2023-01-04T06:18:27.962Z,100.00
2023-01-04T06:19:29.653Z,100.00
2023-01-04T06:20:33.526Z,100.00
2023-01-04T06:21:35.265Z,100.00
2023-01-04T06:22:37.688Z,100.00
2023-01-04T06:23:39.518Z,100.00
2023-01-04T06:24:41.219Z,100.00
2023-01-04T06:25:43.445Z,100.00
2023-01-04T06:26:45.556Z,100.00
2023-01-04T06:27:47.475Z,100.00
2023-01-04T06:28:49.395Z,100.00
2023-01-04T06:29:51.821Z,100.00
2023-01-04T06:30:53.715Z,100.00
2023-01-04T06:31:55.874Z,100.00
2023-01-04T06:32:58.488Z,100.00
2023-01-04T06:34:00.932Z,100.00
2023-01-04T06:35:02.816Z,100.00
2023-01-04T06:36:05.889Z,100.00
2023-01-04T06:37:08.501Z,100.00
2023-01-04T06:38:10.125Z,100.00
2023-01-04T06:39:12.552Z,100.00
2023-01-04T06:40:14.557Z,96.47
2023-01-04T06:41:16.669Z,90.72
2023-01-04T06:42:37.295Z,93.11
2023-01-04T06:43:39.165Z,94.14
2023-01-04T06:44:40.872Z,92.97
2023-01-04T06:45:42.764Z,87.86
2023-01-04T06:46:44.753Z,85.25
2023-01-04T06:47:48.154Z,88.01
2023-01-04T06:48:50.012Z,84.64
2023-01-04T06:49:51.828Z,83.52
2023-01-04T06:50:53.836Z,81.67
2023-01-04T06:51:55.568Z,77.75
2023-01-04T06:52:57.349Z,76.49
2023-01-04T06:53:59.133Z,76.58
2023-01-04T06:55:00.883Z,74.79
2023-01-04T06:56:02.715Z,75.72
2023-01-04T06:57:04.225Z,74.24
2023-01-04T06:58:05.988Z,75.58
2023-01-04T06:59:10.548Z,74.72
2023-01-04T07:00:13.109Z,76.21
2023-01-04T07:01:15.223Z,75.35
2023-01-04T07:02:17.178Z,72.31
2023-01-04T07:03:19.432Z,73.70
2023-01-04T07:04:21.600Z,73.53
2023-01-04T07:05:23.304Z,72.70
2023-01-04T07:06:25.309Z,74.25
2023-01-04T07:07:27.408Z,74.25
2023-01-04T07:08:29.973Z,73.99
2023-01-04T07:09:31.672Z,74.63
2023-01-04T07:10:33.492Z,74.60
2023-01-04T07:11:35.119Z,74.95
2023-01-04T07:12:38.556Z,73.69
2023-01-04T07:13:40.782Z,75.68
2023-01-04T07:14:42.717Z,76.46
2023-01-04T07:15:44.877Z,78.60
2023-01-04T07:16:47.128Z,76.29
2023-01-04T07:17:50.886Z,74.88
2023-01-04T07:18:52.454Z,73.23
2023-01-04T07:19:54.461Z,75.00
2023-01-04T07:20:56.970Z,76.13
2023-01-04T07:21:59.175Z,76.78
2023-01-04T07:23:00.950Z,76.02
2023-01-04T07:24:02.934Z,74.41
2023-01-04T07:25:05.092Z,74.71
2023-01-04T07:26:08.095Z,76.14
2023-01-04T07:27:11.273Z,75.04
2023-01-04T07:28:33.335Z,76.37
2023-01-04T07:29:35.566Z,75.59
2023-01-04T07:30:39.314Z,77.70
2023-01-04T07:31:42.827Z,79.99
2023-01-04T07:32:45.755Z,78.57
2023-01-04T07:33:49.857Z,77.09
2023-01-04T07:34:51.517Z,77.88
2023-01-04T07:35:53.660Z,79.14
2023-01-04T07:36:55.661Z,79.75
2023-01-04T07:37:59.335Z,77.41
2023-01-04T07:39:01.433Z,76.22
2023-01-04T07:40:04.388Z,77.26
2023-01-04T07:41:05.943Z,76.59
2023-01-04T07:42:07.795Z,78.21
2023-01-04T07:43:10.085Z,81.05
2023-01-04T07:44:13.452Z,78.16
2023-01-04T07:45:16.561Z,79.13
2023-01-04T07:46:18.202Z,78.89
2023-01-04T07:47:20.256Z,79.40
2023-01-04T07:48:21.897Z,81.60
2023-01-04T07:49:24.259Z,80.93
2023-01-04T07:50:26.444Z,83.06
2023-01-04T07:51:30.538Z,81.22
2023-01-04T07:52:32.166Z,82.33
2023-01-04T07:53:34.229Z,82.74
2023-01-04T07:54:36.124Z,83.75
2023-01-04T07:55:37.785Z,84.23
2023-01-04T07:56:39.863Z,83.80
2023-01-04T07:57:41.872Z,84.69
2023-01-04T07:58:44.180Z,81.88
2023-01-04T07:59:45.990Z,82.65
2023-01-04T08:00:47.902Z,82.80
2023-01-04T08:01:51.198Z,81.82
2023-01-04T08:02:53.429Z,83.17
2023-01-04T08:03:55.257Z,81.63
2023-01-04T08:04:57.779Z,82.74
2023-01-04T08:06:03.706Z,80.97
2023-01-04T08:07:06.458Z,77.82
2023-01-04T08:08:08.560Z,77.56
2023-01-04T08:09:11.708Z,77.52
2023-01-04T08:10:13.423Z,79.17
2023-01-04T08:11:18.389Z,80.82
2023-01-04T08:12:20.108Z,77.86
2023-01-04T08:13:21.761Z,78.09
2023-01-04T08:14:23.670Z,77.37
2023-01-04T08:15:27.060Z,77.79
2023-01-04T08:16:34.847Z,78.63
2023-01-04T08:17:37.422Z,76.82
2023-01-04T08:18:38.971Z,78.10
2023-01-04T08:19:42.581Z,76.49
2023-01-04T08:20:44.585Z,76.05
2023-01-04T08:21:47.459Z,75.46
2023-01-04T08:22:49.220Z,74.24
2023-01-04T08:23:52.234Z,73.87
2023-01-04T08:24:54.955Z,74.30
2023-01-04T08:26:01.372Z,75.03
2023-01-04T08:27:03.234Z,73.51
2023-01-04T08:28:05.036Z,73.84
2023-01-04T08:29:07.304Z,76.54
2023-01-04T08:30:09.882Z,74.44
2023-01-04T08:31:21.296Z,74.40
2023-01-04T08:32:23.159Z,74.78
2023-01-04T08:33:25.835Z,73.06
2023-01-04T08:34:27.743Z,72.54
2023-01-04T08:35:29.695Z,72.19
2023-01-04T08:36:34.389Z,72.17
2023-01-04T08:37:35.999Z,73.15
2023-01-04T08:40:00.276Z,71.44
2023-01-04T08:41:23.152Z,71.76
2023-01-04T08:42:31.249Z,71.15
2023-01-04T08:43:36.357Z,70.33
2023-01-04T08:44:38.613Z,70.04
2023-01-04T08:45:40.498Z,69.53
2023-01-04T08:46:42.274Z,68.99
2023-01-04T08:47:43.983Z,69.14
2023-01-04T08:48:46.013Z,69.37
2023-01-04T08:49:48.031Z,68.85
2023-01-04T08:50:50.446Z,69.27
2023-01-04T08:51:52.374Z,69.24
2023-01-04T08:52:55.130Z,69.00
2023-01-04T08:53:57.225Z,69.67
2023-01-04T08:54:59.143Z,69.84
2023-01-04T08:56:01.158Z,68.94
2023-01-04T08:57:02.801Z,69.05
2023-01-04T08:58:05.543Z,70.00
2023-01-04T08:59:08.202Z,68.41
2023-01-04T09:00:11.639Z,67.84
2023-01-04T09:01:13.675Z,69.21
2023-01-04T09:02:28.627Z,69.20
2023-01-04T09:03:31.638Z,68.55
2023-01-04T09:04:33.626Z,68.09
2023-01-04T09:05:35.715Z,68.35
2023-01-04T09:06:38.885Z,68.48
2023-01-04T09:07:40.561Z,68.66
2023-01-04T09:08:44.262Z,69.02
2023-01-04T09:09:45.934Z,69.05
2023-01-04T09:10:48.631Z,68.13
2023-01-04T09:11:50.364Z,68.01
2023-01-04T09:12:52.416Z,68.35
2023-01-04T09:14:07.308Z,68.61
2023-01-04T09:15:11.024Z,68.11
2023-01-04T09:16:19.438Z,68.28
2023-01-04T09:17:22.168Z,68.67
2023-01-04T09:18:32.957Z,69.79
2023-01-04T09:19:34.839Z,69.37
2023-01-04T09:20:38.356Z,69.34
2023-01-04T09:21:40.051Z,69.75
2023-01-04T09:22:41.877Z,69.17
2023-01-04T09:23:45.447Z,69.28
2023-01-04T09:24:47.452Z,69.74
2023-01-04T09:25:49.499Z,68.87
2023-01-04T09:26:51.385Z,68.52
2023-01-04T09:27:53.314Z,68.83
2023-01-04T09:28:56.668Z,67.45
2023-01-04T09:29:58.850Z,67.35
2023-01-04T09:31:09.188Z,67.48
2023-01-04T09:32:16.295Z,69.10
2023-01-04T09:33:18.519Z,68.79
2023-01-04T09:34:20.245Z,68.75
2023-01-04T09:35:23.178Z,69.16
2023-01-04T09:36:25.735Z,68.65
2023-01-04T09:37:27.330Z,68.87
2023-01-04T09:38:29.401Z,69.24
2023-01-04T09:39:31.302Z,70.05
2023-01-04T09:40:45.044Z,69.73
2023-01-04T09:41:57.076Z,69.44
2023-01-04T09:43:21.484Z,70.03
2023-01-04T09:45:03.080Z,69.38
2023-01-04T09:46:01.173Z,69.95
2023-01-04T09:47:15.904Z,70.87
2023-01-04T09:48:25.944Z,71.27
2023-01-04T09:49:45.135Z,69.96
2023-01-04T09:51:07.702Z,70.96
2023-01-04T09:52:09.213Z,70.64
2023-01-04T09:53:36.383Z,69.77
2023-01-04T09:55:04.829Z,69.13
2023-01-04T09:56:32.553Z,69.21
2023-01-04T09:57:41.329Z,69.56
2023-01-04T09:58:43.908Z,69.68
2023-01-04T09:59:48.441Z,69.60
2023-01-04T10:01:01.388Z,69.48
2023-01-04T10:02:16.378Z,69.82
2023-01-04T10:03:26.276Z,69.21
2023-01-04T10:04:48.002Z,69.21
2023-01-04T10:05:51.827Z,68.85
2023-01-04T10:06:58.070Z,69.24
2023-01-04T10:08:03.913Z,69.69
2023-01-04T10:09:12.413Z,69.56
2023-01-04T10:10:20.812Z,69.62
2023-01-04T10:11:45.856Z,69.51
2023-01-04T10:13:14.189Z,70.17
2023-01-04T10:14:50.299Z,71.20
2023-01-04T10:16:06.955Z,69.73
2023-01-04T10:19:23.938Z,70.06
2023-01-04T10:21:23.272Z,69.95
2023-01-04T10:22:17.435Z,70.22
2023-01-04T10:23:40.783Z,70.28
2023-01-04T10:24:45.835Z,71.75
2023-01-04T10:25:54.809Z,70.71
2023-01-04T10:27:05.618Z,70.58
2023-01-04T10:28:35.716Z,70.50
2023-01-04T10:30:23.939Z,70.97
2023-01-04T10:31:40.781Z,71.33
2023-01-04T10:32:45.700Z,70.77
2023-01-04T10:34:00.284Z,71.48
2023-01-04T10:35:02.706Z,70.70
2023-01-04T10:36:16.802Z,71.13
2023-01-04T10:37:25.354Z,70.85
2023-01-04T10:38:36.887Z,71.10
2023-01-04T10:39:39.176Z,70.94
2023-01-04T10:40:41.541Z,71.43
2023-01-04T10:41:50.464Z,71.25
2023-01-04T10:43:13.787Z,71.76
2023-01-04T10:44:44.229Z,71.47
2023-01-04T10:45:53.015Z,71.98
2023-01-04T10:47:09.991Z,72.12
2023-01-04T10:48:14.486Z,71.86
2023-01-04T10:49:23.592Z,72.43
2023-01-04T10:50:54.358Z,71.69
2023-01-04T10:52:04.643Z,72.53
2023-01-04T10:53:22.447Z,72.27
2023-01-04T10:54:31.750Z,72.64
2023-01-04T10:56:23.664Z,72.65
2023-01-04T10:57:35.793Z,72.14
2023-01-04T10:58:44.509Z,72.67
2023-01-04T10:59:54.887Z,72.67
2023-01-04T11:01:07.411Z,73.10
2023-01-04T11:02:27.713Z,74.00
2023-01-04T11:03:36.198Z,73.55
2023-01-04T11:04:56.950Z,73.46
2023-01-04T11:06:09.009Z,73.35
2023-01-04T11:07:15.851Z,73.27
2023-01-04T11:08:24.444Z,73.60
2023-01-04T11:10:03.002Z,74.05
2023-01-04T11:11:12.894Z,73.92
2023-01-04T11:12:18.622Z,73.84
2023-01-04T11:13:20.579Z,74.13
2023-01-04T11:14:23.807Z,74.14
2023-01-04T11:15:25.529Z,73.76
2023-01-04T11:16:29.877Z,73.52
2023-01-04T11:17:33.838Z,73.90
2023-01-04T11:18:39.913Z,73.84
2023-01-04T11:19:43.043Z,73.74
2023-01-04T11:20:45.082Z,74.51
2023-01-04T11:22:06.156Z,73.41
2023-01-04T11:23:16.797Z,73.63
2023-01-04T11:24:31.894Z,73.61
2023-01-04T11:25:40.493Z,73.68
2023-01-04T11:26:45.574Z,74.21
2023-01-04T11:28:07.426Z,74.31
2023-01-04T11:29:40.744Z,75.40
2023-01-04T11:31:03.513Z,74.25
2023-01-04T11:32:30.564Z,74.76
2023-01-04T11:33:52.968Z,73.92
2023-01-04T11:34:58.573Z,74.41
2023-01-04T11:36:01.859Z,74.25
2023-01-04T11:37:03.529Z,73.86
2023-01-04T11:38:14.577Z,74.24
2023-01-04T11:39:25.030Z,74.47
2023-01-04T11:40:28.173Z,75.50
2023-01-04T11:41:29.891Z,74.35
2023-01-04T11:42:35.610Z,74.13
2023-01-04T11:43:42.105Z,74.69
2023-01-04T11:44:58.910Z,75.18
2023-01-04T11:46:18.726Z,76.46
2023-01-04T11:47:26.787Z,76.37
2023-01-04T11:48:38.046Z,76.00
2023-01-04T11:49:39.586Z,74.95
2023-01-04T11:50:44.092Z,75.05
2023-01-04T11:51:46.053Z,75.09
2023-01-04T11:52:47.700Z,74.80
2023-01-04T11:54:01.924Z,76.10
2023-01-04T11:55:27.597Z,76.30
2023-01-04T11:56:32.222Z,76.73
2023-01-04T11:57:35.069Z,76.42
2023-01-04T11:58:37.074Z,77.29
2023-01-04T11:59:40.326Z,77.05
2023-01-04T12:00:56.731Z,76.33
2023-01-04T12:02:42.639Z,76.89
2023-01-04T12:03:42.760Z,75.42
2023-01-04T12:04:45.147Z,78.37
2023-01-04T12:05:47.805Z,77.49
2023-01-04T12:07:03.947Z,76.20
2023-01-04T12:08:06.007Z,76.82
2023-01-04T12:09:14.382Z,75.64
2023-01-04T12:10:26.619Z,75.26
2023-01-04T12:11:36.345Z,76.38
2023-01-04T12:12:39.968Z,77.10
2023-01-04T12:13:41.560Z,76.26
2023-01-04T12:14:48.867Z,76.14
2023-01-04T12:16:12.774Z,77.21
2023-01-04T12:17:29.752Z,77.30
2023-01-04T12:18:43.735Z,77.80
2023-01-04T12:19:46.651Z,76.55
2023-01-04T12:20:48.907Z,75.96
2023-01-04T12:21:57.802Z,76.06
2023-01-04T12:22:59.810Z,76.56
2023-01-04T12:24:06.014Z,76.74
2023-01-04T12:25:33.317Z,76.64
2023-01-04T12:26:42.071Z,76.88
2023-01-04T12:27:48.828Z,76.63
2023-01-04T12:29:11.524Z,77.32
2023-01-04T12:30:32.819Z,77.05
2023-01-04T12:31:34.468Z,76.08
2023-01-04T12:32:36.540Z,76.30
2023-01-04T12:33:39.985Z,76.22
2023-01-04T12:34:43.920Z,74.94
2023-01-04T12:36:02.652Z,75.39
2023-01-04T12:37:06.356Z,75.38
2023-01-04T12:38:09.883Z,75.12
2023-01-04T12:39:14.367Z,75.23
2023-01-04T12:40:49.042Z,74.53
2023-01-04T12:42:04.002Z,73.92
2023-01-04T12:43:14.802Z,74.47
2023-01-04T12:44:43.521Z,73.68
2023-01-04T12:46:09.250Z,73.17
2023-01-04T12:47:38.484Z,73.69
2023-01-04T12:48:58.826Z,72.67
2023-01-04T12:50:05.213Z,72.99
2023-01-04T12:51:33.261Z,74.50
2023-01-04T12:53:20.007Z,73.58
2023-01-04T12:54:24.573Z,72.36
2023-01-04T12:55:32.651Z,73.70
2023-01-04T12:57:12.425Z,73.46
2023-01-04T12:59:23.426Z,73.15
2023-01-04T13:00:01.556Z,73.12
2023-01-04T13:01:06.144Z,73.05
2023-01-04T13:02:22.112Z,73.71
2023-01-04T13:03:25.172Z,72.97
2023-01-04T13:04:29.507Z,73.12
2023-01-04T13:07:09.379Z,74.40
2023-01-04T13:08:13.790Z,74.97
2023-01-04T13:09:24.016Z,74.78
2023-01-04T13:10:30.154Z,75.37
2023-01-04T13:12:03.523Z,74.49
2023-01-04T13:13:24.135Z,74.84
2023-01-04T13:14:36.175Z,75.96
2023-01-04T13:15:57.433Z,74.67
2023-01-04T13:17:14.361Z,75.15
2023-01-04T13:18:53.079Z,75.15
2023-01-04T13:19:55.368Z,75.60
2023-01-04T13:20:57.714Z,75.61
2023-01-04T13:22:01.106Z,75.62
2023-01-04T13:23:05.028Z,75.94
2023-01-04T13:24:34.413Z,75.01
2023-01-04T13:25:37.292Z,74.58
2023-01-04T13:26:50.968Z,75.44
2023-01-04T13:28:01.707Z,75.66
2023-01-04T13:29:15.695Z,75.73
2023-01-04T13:30:41.731Z,75.47
2023-01-04T13:31:48.897Z,74.60
2023-01-04T13:33:24.380Z,74.65
2023-01-04T13:34:30.926Z,74.94
2023-01-04T13:35:33.412Z,75.08
2023-01-04T13:36:35.341Z,75.35
2023-01-04T13:37:46.679Z,75.44
2023-01-04T13:38:48.750Z,75.28
2023-01-04T13:39:59.964Z,75.58
2023-01-04T13:41:02.025Z,76.25
2023-01-04T13:42:05.457Z,76.04
2023-01-04T13:43:42.398Z,77.71
2023-01-04T13:45:18.640Z,76.28
2023-01-04T13:46:16.477Z,76.71
2023-01-04T13:47:18.608Z,76.43
2023-01-04T13:48:25.006Z,77.05
2023-01-04T13:49:27.052Z,76.25
2023-01-04T13:50:31.731Z,76.81
2023-01-04T13:51:38.694Z,76.62
2023-01-04T13:52:55.160Z,76.69
2023-01-04T13:54:06.037Z,76.69
2023-01-04T13:55:28.003Z,76.90
2023-01-04T13:56:32.738Z,76.64
2023-01-04T13:57:34.939Z,76.69
2023-01-04T13:58:36.601Z,77.19
2023-01-04T13:59:38.207Z,77.00
2023-01-04T14:00:57.298Z,77.16
2023-01-04T14:01:59.255Z,77.17
2023-01-04T14:03:15.169Z,76.86
2023-01-04T14:04:29.177Z,77.34
2023-01-04T14:05:31.791Z,77.81
2023-01-04T14:06:41.207Z,77.85
2023-01-04T14:07:44.782Z,77.95
2023-01-04T14:08:49.821Z,77.09
2023-01-04T14:09:56.489Z,76.92
2023-01-04T14:10:58.945Z,77.28
2023-01-04T14:12:08.882Z,77.30
2023-01-04T14:13:17.396Z,77.84
2023-01-04T14:14:29.298Z,76.97
2023-01-04T14:15:34.134Z,77.09
2023-01-04T14:16:36.018Z,77.00
2023-01-04T14:17:48.607Z,76.96
2023-01-04T14:18:52.227Z,76.77
2023-01-04T14:19:58.872Z,77.24
2023-01-04T14:21:00.583Z,76.21
2023-01-04T14:22:02.632Z,76.57
2023-01-04T14:23:05.424Z,76.68
2023-01-04T14:25:58.737Z,77.09
2023-01-04T14:27:00.383Z,77.43
2023-01-04T14:28:30.434Z,77.25